Airfield :
LOGIN :

Register | Disclaimer

   EN    FR    IT 

 










Legend :    VFR   Marginal VFR   IFR   Intensive IFR   Very Intensive IFR
Visi :
Ceiling :
>= 8 km
>= 3000ft
5 to 8 km
1000 to 3000 ft
1500m to 5 km
500 to 1000 ft
800 to 1500m
200 to 500 ft
< 800m
< 200 ft
Symbols :   Thunderstorms  Fog  Heavy snow  Heavy precipitations  Wind > 20 kt
SIGMETs :     Misc.  Thunderstorms  Icing  Turbulence  Mountain Waves  Volcanic Ashes






- Airport Elevation : -15 ft
- IATA code : RTM


EHRD - Rotterdam Zestienhoven

CURRENT METAR :
  • 021455Z AUTO 19004KT 7000 NSC 02/01 Q1015 TEMPO 4000 SHRASN FEW020TCU

EXPIRED METARs :
  • 021425Z AUTO 20005KT 7000 BKN037 OVC042 03/01 Q1014 TEMPO 4000 SHRASN FEW020TCU
  • 021355Z AUTO 20005KT 150V270 7000 OVC046 03/01 Q1014 TEMPO 4000 SHRASN FEW020TCU
  • 021325Z AUTO 20005KT 170V230 7000 BKN045 03/01 Q1014 TEMPO 4000 SHRASN FEW020TCU
  • 021255Z AUTO 22005KT 180V240 5000 NSC 03/01 Q1014 BECMG 7000 NSW
  • 021225Z AUTO 21006KT 1900 BR OVC002/// 01/00 Q1014 BECMG 3000 BKN003
  • 021155Z AUTO 21007KT 2000 BR BKN001 OVC003 01/00 Q1014 BECMG 0800 FG
  • 021125Z AUTO 22006KT 6000 FEW008 02/00 Q1014 BECMG 0800 FG
  • 021055Z AUTO 22004KT 5000 NSC 02/00 Q1014 BECMG 0800 FG
  • 021025Z AUTO 20003KT 5000 FEW007 01/M01 Q1014 NOSIG

TAF COR TAF EHRD
Valid from the 02 at 12:00 until the 03 at 18:00 UTC


021127Z 0212/0318 23005KT 7000 NSC
PROB30 0212/0214 0800 FG BKN004
PROB30
TEMPO 0214/0303 23010KT 3000 SHRA SHRASN FEW007 SCT020CB BKN030
BECMG 0218/0221 4000 BR MIFG
PROB40
TEMPO 0221/0306 1200 BCFG SCT002 BKN003
BECMG 0306/0309 18010KT CAVOK
BECMG 0314/0317 16015KT 3000 -SN BKN012
PROB40 0316/0318 1500 SN BKN006



MET'MAP, your aeronautical weather chart ! - Copyright ORBIFLY December 2007 - Disclaimer

ORBIFLY MET'MAP TEAM :

Programming & Development : Alexandra Zaïnal
Original concept : Baudouin d'Aumeries
Technical & hardware support : Manuel Goepfert
Assistance : Marc-Olivier Méhu




SOURCES & CREDITS :

   NOAA